TIST/STT METAR and TAF weather

Enter ICAO airport designator
Station Type Date Time Source
TIST METAR 2024/07/13 03:53 UTC NOAA

TIST 130353Z AUTO 11009KT 10SM CLR 28/26 A3009 RMK AO2 SLP189 T02780256 403170267 TSNO $


Station Type Date Time Source
TIST Decoded METAR 2024/07/13 03:53 UTC NOAA

Charlotte Amalie St. Thomas, Cyril E. King Airport, Virgin Islands (TIST) 18-20N 064-59W
Jul 12, 2024 - 11:53 PM EDT / 2024.07.13 0353 UTC
Wind: from the ESE (110 degrees) at 10 MPH (9 KT):0
Visibility: 10 mile(s):0
Sky conditions: clear
Temperature: 82.0 F (27.8 C)
Dew Point: 78.1 F (25.6 C)
Relative Humidity: 87%
Pressure (altimeter): 30.09 in. Hg (1018 hPa)
ob: TIST 130353Z AUTO 11009KT 10SM CLR 28/26 A3009 RMK AO2 SLP189 T02780256 403170267 TSNO
cycle: 4

Station Type Date Time Source
TIST TAF 2024/07/12 18:48 UTC NOAA